Terminal Aerodrome Forecast
Issued by NWS

Home | Current Version | Previous Version | Text Only | Print | Product List | Glossary On
Versions: 1 2 3 4 5 6 7 8 9 10 11 12 13 14 15 16 17 18 19 20 21 22 23 24 25 26 27 28 29 30 31 32 33 34 35 36 37 38 39 40 41 42 43 44 45 46 47 48 49 50
000
FTUS43 KLSX 161349 AAB
TAFSUS
TAF AMD
KSUS 161349Z 1614/1712 VRB04KT P6SM VCSH SCT006 OVC020
      TEMPO 1614/1616 6SM -SHRA BKN006
     FM161800 VRB04KT P6SM VCSH BKN025
     FM162000 VRB04KT P6SM VCSH BKN035
     FM162300 VRB03KT P6SM SCT050=

USA.gov is the U.S. government's official web portal to all federal, state and local government web resources and services.